sensor_id;sensor_type;location;lat;lon;timestamp;P1;durP1;ratioP1;P2;durP2;ratioP2
22837;SDS011;11585;51.450;-0.240;2022-12-18T21:19:11;32.20;;;9.35;;
22837;SDS011;11585;51.450;-0.240;2022-12-18T21:21:38;26.60;;;9.80;;
22837;SDS011;11585;51.450;-0.240;2022-12-18T21:26:53;29.77;;;9.52;;
22837;SDS011;11585;51.450;-0.240;2022-12-18T21:29:20;28.43;;;9.10;;
22837;SDS011;11585;51.450;-0.240;2022-12-18T21:31:47;32.03;;;8.60;;
22837;SDS011;11585;51.450;-0.240;2022-12-18T21:34:17;25.63;;;8.05;;
22837;SDS011;11585;51.450;-0.240;2022-12-18T21:36:45;30.67;;;9.30;;
22837;SDS011;11585;51.450;-0.240;2022-12-18T21:39:11;20.50;;;8.13;;
22837;SDS011;11585;51.450;-0.240;2022-12-18T21:41:37;24.02;;;8.65;;
22837;SDS011;11585;51.450;-0.240;2022-12-18T21:44:22;13.38;;;5.43;;
22837;SDS011;11585;51.450;-0.240;2022-12-18T21:46:48;25.60;;;8.18;;
22837;SDS011;11585;51.450;-0.240;2022-12-18T21:49:15;20.63;;;7.50;;
22837;SDS011;11585;51.450;-0.240;2022-12-18T21:51:42;27.58;;;7.53;;
22837;SDS011;11585;51.450;-0.240;2022-12-18T21:54:12;24.02;;;7.63;;
22837;SDS011;11585;51.450;-0.240;2022-12-18T21:56:44;24.40;;;6.80;;
22837;SDS011;11585;51.450;-0.240;2022-12-18T21:59:37;25.05;;;7.30;;
22837;SDS011;11585;51.450;-0.240;2022-12-18T22:02:26;21.35;;;6.53;;
22837;SDS011;11585;51.450;-0.240;2022-12-18T22:08:11;23.50;;;6.13;;
22837;SDS011;11585;51.450;-0.240;2022-12-18T22:10:48;21.27;;;6.18;;
22837;SDS011;11585;51.450;-0.240;2022-12-18T22:13:14;16.52;;;5.30;;
22837;SDS011;11585;51.450;-0.240;2022-12-18T22:15:48;16.38;;;5.47;;
22837;SDS011;11585;51.450;-0.240;2022-12-18T22:18:50;30.08;;;6.05;;
22837;SDS011;11585;51.450;-0.240;2022-12-18T22:21:27;15.60;;;3.77;;
22837;SDS011;11585;51.450;-0.240;2022-12-18T22:27:15;16.98;;;4.20;;
22837;SDS011;11585;51.450;-0.240;2022-12-18T22:29:41;19.83;;;4.40;;
22837;SDS011;11585;51.450;-0.240;2022-12-18T22:32:24;15.95;;;4.65;;
22837;SDS011;11585;51.450;-0.240;2022-12-18T22:34:59;15.57;;;3.83;;
22837;SDS011;11585;51.450;-0.240;2022-12-18T22:43:36;12.20;;;4.13;;
22837;SDS011;11585;51.450;-0.240;2022-12-18T22:46:28;12.80;;;4.13;;
22837;SDS011;11585;51.450;-0.240;2022-12-18T22:49:18;12.73;;;4.03;;
22837;SDS011;11585;51.450;-0.240;2022-12-18T22:51:46;12.90;;;4.07;;
22837;SDS011;11585;51.450;-0.240;2022-12-18T22:54:14;22.75;;;5.40;;
22837;SDS011;11585;51.450;-0.240;2022-12-18T22:56:45;16.60;;;5.13;;
22837;SDS011;11585;51.450;-0.240;2022-12-18T22:59:15;27.20;;;5.88;;
22837;SDS011;11585;51.450;-0.240;2022-12-18T23:05:34;12.43;;;4.22;;
22837;SDS011;11585;51.450;-0.240;2022-12-18T23:08:00;17.27;;;5.28;;
22837;SDS011;11585;51.450;-0.240;2022-12-18T23:13:19;18.70;;;5.10;;
22837;SDS011;11585;51.450;-0.240;2022-12-18T23:18:45;18.58;;;5.00;;
22837;SDS011;11585;51.450;-0.240;2022-12-18T23:21:17;25.75;;;5.05;;
22837;SDS011;11585;51.450;-0.240;2022-12-18T23:23:44;21.63;;;5.55;;
22837;SDS011;11585;51.450;-0.240;2022-12-18T23:26:11;27.80;;;5.50;;
22837;SDS011;11585;51.450;-0.240;2022-12-18T23:28:47;21.88;;;5.15;;
22837;SDS011;11585;51.450;-0.240;2022-12-18T23:33:45;23.23;;;5.22;;
22837;SDS011;11585;51.450;-0.240;2022-12-18T23:36:12;19.00;;;4.97;;
22837;SDS011;11585;51.450;-0.240;2022-12-18T23:38:38;16.67;;;4.60;;
22837;SDS011;11585;51.450;-0.240;2022-12-18T23:41:12;16.08;;;4.85;;
22837;SDS011;11585;51.450;-0.240;2022-12-18T23:43:39;10.50;;;3.97;;
22837;SDS011;11585;51.450;-0.240;2022-12-18T23:46:09;22.55;;;5.05;;
22837;SDS011;11585;51.450;-0.240;2022-12-18T23:48:46;10.50;;;4.63;;
22837;SDS011;11585;51.450;-0.240;2022-12-18T23:51:13;14.82;;;4.32;;
22837;SDS011;11585;51.450;-0.240;2022-12-18T23:53:40;11.63;;;4.32;;
22837;SDS011;11585;51.450;-0.240;2022-12-18T23:59:28;16.23;;;3.53;;
